sensor_id;sensor_type;location;lat;lon;timestamp;P1;durP1;ratioP1;P2;durP2;ratioP2
35681;SDS011;21805;51.022;4.782;2023-08-08T00:00:22;11.82;;;2.55;;
35681;SDS011;21805;51.022;4.782;2023-08-08T00:02:48;7.95;;;2.88;;
35681;SDS011;21805;51.022;4.782;2023-08-08T00:05:15;7.82;;;2.80;;
35681;SDS011;21805;51.022;4.782;2023-08-08T00:07:50;5.47;;;2.50;;
35681;SDS011;21805;51.022;4.782;2023-08-08T00:10:19;5.55;;;2.40;;
35681;SDS011;21805;51.022;4.782;2023-08-08T00:12:54;9.45;;;2.80;;
35681;SDS011;21805;51.022;4.782;2023-08-08T00:17:51;5.78;;;2.28;;
35681;SDS011;21805;51.022;4.782;2023-08-08T00:20:18;10.52;;;2.85;;
35681;SDS011;21805;51.022;4.782;2023-08-08T00:22:45;12.25;;;2.80;;
35681;SDS011;21805;51.022;4.782;2023-08-08T00:25:11;13.73;;;2.72;;
35681;SDS011;21805;51.022;4.782;2023-08-08T00:30:10;9.45;;;2.50;;
35681;SDS011;21805;51.022;4.782;2023-08-08T00:32:40;10.27;;;2.80;;
35681;SDS011;21805;51.022;4.782;2023-08-08T00:35:12;15.43;;;3.38;;
35681;SDS011;21805;51.022;4.782;2023-08-08T00:37:45;5.25;;;2.42;;
35681;SDS011;21805;51.022;4.782;2023-08-08T00:40:13;7.82;;;2.40;;
35681;SDS011;21805;51.022;4.782;2023-08-08T00:42:44;10.07;;;2.50;;
35681;SDS011;21805;51.022;4.782;2023-08-08T00:45:11;8.90;;;2.70;;
35681;SDS011;21805;51.022;4.782;2023-08-08T00:50:06;8.00;;;2.70;;
35681;SDS011;21805;51.022;4.782;2023-08-08T00:55:11;10.45;;;2.70;;
35681;SDS011;21805;51.022;4.782;2023-08-08T00:57:37;10.15;;;2.72;;
35681;SDS011;21805;51.022;4.782;2023-08-08T01:02:55;13.60;;;2.67;;
35681;SDS011;21805;51.022;4.782;2023-08-08T01:08:27;7.55;;;2.47;;
35681;SDS011;21805;51.022;4.782;2023-08-08T01:10:54;12.38;;;3.05;;
35681;SDS011;21805;51.022;4.782;2023-08-08T01:15:52;8.25;;;2.28;;
35681;SDS011;21805;51.022;4.782;2023-08-08T01:18:21;9.90;;;2.92;;
35681;SDS011;21805;51.022;4.782;2023-08-08T01:20:50;12.45;;;3.47;;
35681;SDS011;21805;51.022;4.782;2023-08-08T01:23:33;12.15;;;3.08;;
35681;SDS011;21805;51.022;4.782;2023-08-08T01:26:09;13.18;;;2.70;;
35681;SDS011;21805;51.022;4.782;2023-08-08T01:28:35;12.32;;;3.15;;
35681;SDS011;21805;51.022;4.782;2023-08-08T01:31:03;18.15;;;3.17;;
35681;SDS011;21805;51.022;4.782;2023-08-08T01:33:32;11.80;;;3.00;;
35681;SDS011;21805;51.022;4.782;2023-08-08T01:36:03;15.02;;;3.25;;
35681;SDS011;21805;51.022;4.782;2023-08-08T01:38:37;18.02;;;3.10;;
35681;SDS011;21805;51.022;4.782;2023-08-08T01:41:08;14.57;;;3.60;;
35681;SDS011;21805;51.022;4.782;2023-08-08T01:43:37;24.73;;;3.25;;
35681;SDS011;21805;51.022;4.782;2023-08-08T01:46:04;7.10;;;2.72;;
35681;SDS011;21805;51.022;4.782;2023-08-08T01:48:33;10.90;;;3.08;;
35681;SDS011;21805;51.022;4.782;2023-08-08T01:50:59;13.82;;;3.00;;
35681;SDS011;21805;51.022;4.782;2023-08-08T01:53:29;17.20;;;3.38;;
35681;SDS011;21805;51.022;4.782;2023-08-08T01:55:56;12.27;;;3.65;;
35681;SDS011;21805;51.022;4.782;2023-08-08T01:58:22;13.43;;;3.10;;
35681;SDS011;21805;51.022;4.782;2023-08-08T02:03:20;13.90;;;3.50;;
35681;SDS011;21805;51.022;4.782;2023-08-08T02:08:17;15.43;;;3.03;;
35681;SDS011;21805;51.022;4.782;2023-08-08T02:10:44;15.68;;;3.53;;
35681;SDS011;21805;51.022;4.782;2023-08-08T02:13:12;11.35;;;3.15;;
35681;SDS011;21805;51.022;4.782;2023-08-08T02:15:39;12.38;;;2.92;;
35681;SDS011;21805;51.022;4.782;2023-08-08T02:18:06;10.15;;;2.85;;
35681;SDS011;21805;51.022;4.782;2023-08-08T02:20:41;14.52;;;3.38;;
35681;SDS011;21805;51.022;4.782;2023-08-08T02:25:38;17.98;;;3.47;;
35681;SDS011;21805;51.022;4.782;2023-08-08T02:28:10;15.30;;;3.60;;
35681;SDS011;21805;51.022;4.782;2023-08-08T02:30:36;17.70;;;3.50;;
35681;SDS011;21805;51.022;4.782;2023-08-08T02:33:10;14.07;;;3.20;;
35681;SDS011;21805;51.022;4.782;2023-08-08T02:35:38;16.10;;;3.38;;
35681;SDS011;21805;51.022;4.782;2023-08-08T02:38:05;22.52;;;4.07;;
35681;SDS011;21805;51.022;4.782;2023-08-08T02:40:31;13.43;;;3.67;;
35681;SDS011;21805;51.022;4.782;2023-08-08T02:42:59;14.85;;;3.80;;
35681;SDS011;21805;51.022;4.782;2023-08-08T02:45:26;16.33;;;3.55;;
35681;SDS011;21805;51.022;4.782;2023-08-08T02:50:22;15.85;;;3.90;;
35681;SDS011;21805;51.022;4.782;2023-08-08T02:52:50;20.95;;;4.35;;
35681;SDS011;21805;51.022;4.782;2023-08-08T02:55:15;20.83;;;4.03;;
35681;SDS011;21805;51.022;4.782;2023-08-08T02:57:41;22.30;;;4.55;;
35681;SDS011;21805;51.022;4.782;2023-08-08T03:02:40;10.52;;;3.72;;
35681;SDS011;21805;51.022;4.782;2023-08-08T03:05:12;15.45;;;4.07;;
35681;SDS011;21805;51.022;4.782;2023-08-08T03:10:07;21.13;;;3.58;;
35681;SDS011;21805;51.022;4.782;2023-08-08T03:12:33;14.40;;;3.70;;
35681;SDS011;21805;51.022;4.782;2023-08-08T03:17:32;20.63;;;4.50;;
35681;SDS011;21805;51.022;4.782;2023-08-08T03:22:29;17.20;;;4.10;;
35681;SDS011;21805;51.022;4.782;2023-08-08T03:24:56;16.05;;;3.90;;
35681;SDS011;21805;51.022;4.782;2023-08-08T03:29:52;16.17;;;3.88;;
35681;SDS011;21805;51.022;4.782;2023-08-08T03:32:18;19.88;;;4.45;;
35681;SDS011;21805;51.022;4.782;2023-08-08T03:37:13;16.25;;;4.03;;
35681;SDS011;21805;51.022;4.782;2023-08-08T03:39:39;25.52;;;4.50;;
35681;SDS011;21805;51.022;4.782;2023-08-08T03:42:07;20.50;;;4.35;;
35681;SDS011;21805;51.022;4.782;2023-08-08T03:44:36;17.13;;;4.30;;
35681;SDS011;21805;51.022;4.782;2023-08-08T03:47:02;17.25;;;3.72;;
35681;SDS011;21805;51.022;4.782;2023-08-08T03:49:28;21.35;;;3.95;;
35681;SDS011;21805;51.022;4.782;2023-08-08T03:51:54;16.77;;;4.00;;
35681;SDS011;21805;51.022;4.782;2023-08-08T03:54:21;17.35;;;4.07;;
35681;SDS011;21805;51.022;4.782;2023-08-08T03:56:50;20.63;;;4.30;;
35681;SDS011;21805;51.022;4.782;2023-08-08T04:01:48;13.65;;;3.78;;
35681;SDS011;21805;51.022;4.782;2023-08-08T04:04:14;15.95;;;4.20;;
35681;SDS011;21805;51.022;4.782;2023-08-08T04:06:40;17.98;;;4.05;;
35681;SDS011;21805;51.022;4.782;2023-08-08T04:09:12;26.38;;;4.25;;
35681;SDS011;21805;51.022;4.782;2023-08-08T04:11:39;12.30;;;3.42;;
35681;SDS011;21805;51.022;4.782;2023-08-08T04:14:05;16.02;;;4.15;;
35681;SDS011;21805;51.022;4.782;2023-08-08T04:16:33;14.00;;;3.88;;
35681;SDS011;21805;51.022;4.782;2023-08-08T04:21:31;18.98;;;4.45;;
35681;SDS011;21805;51.022;4.782;2023-08-08T04:24:01;18.88;;;3.85;;
35681;SDS011;21805;51.022;4.782;2023-08-08T04:26:27;16.25;;;4.03;;
35681;SDS011;21805;51.022;4.782;2023-08-08T04:28:55;16.63;;;4.57;;
35681;SDS011;21805;51.022;4.782;2023-08-08T04:31:24;17.70;;;4.18;;
35681;SDS011;21805;51.022;4.782;2023-08-08T04:33:51;19.00;;;3.78;;
35681;SDS011;21805;51.022;4.782;2023-08-08T04:36:21;19.95;;;4.72;;
35681;SDS011;21805;51.022;4.782;2023-08-08T04:43:43;18.20;;;4.93;;
35681;SDS011;21805;51.022;4.782;2023-08-08T04:48:41;21.25;;;4.75;;
35681;SDS011;21805;51.022;4.782;2023-08-08T04:53:37;20.67;;;4.00;;
35681;SDS011;21805;51.022;4.782;2023-08-08T04:56:03;20.58;;;4.68;;
35681;SDS011;21805;51.022;4.782;2023-08-08T05:00:59;19.45;;;5.22;;
35681;SDS011;21805;51.022;4.782;2023-08-08T05:03:26;19.88;;;4.22;;
35681;SDS011;21805;51.022;4.782;2023-08-08T05:05:54;21.48;;;4.47;;
35681;SDS011;21805;51.022;4.782;2023-08-08T05:08:23;17.83;;;4.43;;
35681;SDS011;21805;51.022;4.782;2023-08-08T05:13:20;22.75;;;4.07;;
35681;SDS011;21805;51.022;4.782;2023-08-08T05:15:47;16.92;;;4.45;;
35681;SDS011;21805;51.022;4.782;2023-08-08T05:20:43;13.88;;;4.00;;
35681;SDS011;21805;51.022;4.782;2023-08-08T05:25:40;13.95;;;3.80;;
35681;SDS011;21805;51.022;4.782;2023-08-08T05:30:36;27.55;;;4.50;;
35681;SDS011;21805;51.022;4.782;2023-08-08T05:33:02;21.70;;;4.35;;
35681;SDS011;21805;51.022;4.782;2023-08-08T05:35:28;17.92;;;4.68;;
35681;SDS011;21805;51.022;4.782;2023-08-08T05:37:54;19.75;;;3.85;;
35681;SDS011;21805;51.022;4.782;2023-08-08T05:42:50;21.27;;;4.05;;
35681;SDS011;21805;51.022;4.782;2023-08-08T05:45:15;23.33;;;4.22;;
35681;SDS011;21805;51.022;4.782;2023-08-08T05:47:41;25.60;;;4.18;;
35681;SDS011;21805;51.022;4.782;2023-08-08T05:55:26;16.23;;;3.78;;
35681;SDS011;21805;51.022;4.782;2023-08-08T05:57:51;18.38;;;4.38;;
35681;SDS011;21805;51.022;4.782;2023-08-08T06:00:21;22.58;;;3.42;;
35681;SDS011;21805;51.022;4.782;2023-08-08T06:02:47;17.25;;;4.07;;
35681;SDS011;21805;51.022;4.782;2023-08-08T06:07:48;15.00;;;3.38;;
35681;SDS011;21805;51.022;4.782;2023-08-08T06:10:15;17.58;;;3.38;;
35681;SDS011;21805;51.022;4.782;2023-08-08T06:15:24;18.10;;;4.40;;
35681;SDS011;21805;51.022;4.782;2023-08-08T06:18:04;15.15;;;3.72;;
35681;SDS011;21805;51.022;4.782;2023-08-08T06:20:31;23.42;;;3.90;;
35681;SDS011;21805;51.022;4.782;2023-08-08T06:25:27;13.30;;;3.03;;
35681;SDS011;21805;51.022;4.782;2023-08-08T06:27:55;18.35;;;3.88;;
35681;SDS011;21805;51.022;4.782;2023-08-08T06:32:51;17.85;;;3.60;;
35681;SDS011;21805;51.022;4.782;2023-08-08T06:38:18;16.17;;;3.47;;
35681;SDS011;21805;51.022;4.782;2023-08-08T06:46:05;20.05;;;4.15;;
35681;SDS011;21805;51.022;4.782;2023-08-08T06:56:11;15.13;;;3.47;;
35681;SDS011;21805;51.022;4.782;2023-08-08T06:58:39;21.17;;;3.85;;
35681;SDS011;21805;51.022;4.782;2023-08-08T07:01:08;16.63;;;3.95;;
35681;SDS011;21805;51.022;4.782;2023-08-08T07:06:04;16.52;;;3.53;;
35681;SDS011;21805;51.022;4.782;2023-08-08T07:08:32;15.00;;;3.50;;
35681;SDS011;21805;51.022;4.782;2023-08-08T07:11:20;14.50;;;3.10;;
35681;SDS011;21805;51.022;4.782;2023-08-08T07:13:54;20.73;;;4.13;;
35681;SDS011;21805;51.022;4.782;2023-08-08T07:16:22;15.48;;;3.22;;
35681;SDS011;21805;51.022;4.782;2023-08-08T07:18:52;23.23;;;3.85;;
35681;SDS011;21805;51.022;4.782;2023-08-08T07:21:28;16.85;;;3.42;;
35681;SDS011;21805;51.022;4.782;2023-08-08T07:26:52;19.92;;;3.65;;
35681;SDS011;21805;51.022;4.782;2023-08-08T07:29:20;14.20;;;3.40;;
35681;SDS011;21805;51.022;4.782;2023-08-08T07:31:48;16.00;;;3.80;;
35681;SDS011;21805;51.022;4.782;2023-08-08T07:34:26;17.27;;;3.78;;
35681;SDS011;21805;51.022;4.782;2023-08-08T07:37:06;17.02;;;3.80;;
35681;SDS011;21805;51.022;4.782;2023-08-08T07:39:58;18.13;;;3.28;;
35681;SDS011;21805;51.022;4.782;2023-08-08T07:42:24;15.77;;;3.35;;
35681;SDS011;21805;51.022;4.782;2023-08-08T07:47:30;15.25;;;3.33;;
35681;SDS011;21805;51.022;4.782;2023-08-08T07:49:57;19.10;;;3.85;;
35681;SDS011;21805;51.022;4.782;2023-08-08T07:52:25;15.20;;;3.47;;
35681;SDS011;21805;51.022;4.782;2023-08-08T07:57:24;14.80;;;3.60;;
35681;SDS011;21805;51.022;4.782;2023-08-08T08:02:34;19.77;;;3.55;;
35681;SDS011;21805;51.022;4.782;2023-08-08T08:05:10;14.57;;;3.25;;
35681;SDS011;21805;51.022;4.782;2023-08-08T08:07:37;15.43;;;3.60;;
35681;SDS011;21805;51.022;4.782;2023-08-08T08:10:13;10.95;;;3.00;;
35681;SDS011;21805;51.022;4.782;2023-08-08T08:12:40;11.05;;;3.40;;
35681;SDS011;21805;51.022;4.782;2023-08-08T08:15:08;18.10;;;3.47;;
35681;SDS011;21805;51.022;4.782;2023-08-08T08:17:34;15.60;;;3.30;;
35681;SDS011;21805;51.022;4.782;2023-08-08T08:20:06;15.10;;;3.15;;
35681;SDS011;21805;51.022;4.782;2023-08-08T08:22:42;14.15;;;3.58;;
35681;SDS011;21805;51.022;4.782;2023-08-08T08:25:10;11.48;;;3.45;;
35681;SDS011;21805;51.022;4.782;2023-08-08T08:27:43;17.23;;;3.17;;
35681;SDS011;21805;51.022;4.782;2023-08-08T08:30:38;17.58;;;3.65;;
35681;SDS011;21805;51.022;4.782;2023-08-08T08:33:04;17.63;;;3.55;;
35681;SDS011;21805;51.022;4.782;2023-08-08T08:35:33;15.15;;;2.90;;
35681;SDS011;21805;51.022;4.782;2023-08-08T08:38:03;14.55;;;3.58;;
35681;SDS011;21805;51.022;4.782;2023-08-08T08:43:10;15.50;;;3.20;;
35681;SDS011;21805;51.022;4.782;2023-08-08T08:48:10;12.25;;;3.10;;
35681;SDS011;21805;51.022;4.782;2023-08-08T08:50:43;9.90;;;3.03;;
35681;SDS011;21805;51.022;4.782;2023-08-08T08:53:12;13.35;;;3.13;;
35681;SDS011;21805;51.022;4.782;2023-08-08T08:55:40;13.95;;;3.25;;
35681;SDS011;21805;51.022;4.782;2023-08-08T08:58:06;11.25;;;3.30;;
35681;SDS011;21805;51.022;4.782;2023-08-08T09:00:33;13.52;;;3.92;;
35681;SDS011;21805;51.022;4.782;2023-08-08T09:03:04;10.63;;;2.92;;
35681;SDS011;21805;51.022;4.782;2023-08-08T09:05:30;18.58;;;3.67;;
35681;SDS011;21805;51.022;4.782;2023-08-08T09:07:58;13.48;;;3.55;;
35681;SDS011;21805;51.022;4.782;2023-08-08T09:10:33;16.80;;;3.45;;
35681;SDS011;21805;51.022;4.782;2023-08-08T09:13:05;18.88;;;4.10;;
35681;SDS011;21805;51.022;4.782;2023-08-08T09:15:39;14.02;;;3.70;;
35681;SDS011;21805;51.022;4.782;2023-08-08T09:18:13;13.35;;;3.60;;
35681;SDS011;21805;51.022;4.782;2023-08-08T09:23:39;13.95;;;3.28;;
35681;SDS011;21805;51.022;4.782;2023-08-08T09:26:09;11.30;;;3.33;;
35681;SDS011;21805;51.022;4.782;2023-08-08T09:28:42;12.77;;;3.53;;
35681;SDS011;21805;51.022;4.782;2023-08-08T09:31:28;15.25;;;3.85;;
35681;SDS011;21805;51.022;4.782;2023-08-08T09:34:12;15.00;;;3.95;;
35681;SDS011;21805;51.022;4.782;2023-08-08T09:36:38;13.20;;;3.40;;
35681;SDS011;21805;51.022;4.782;2023-08-08T09:39:18;9.52;;;3.20;;
35681;SDS011;21805;51.022;4.782;2023-08-08T09:42:03;12.18;;;3.08;;
35681;SDS011;21805;51.022;4.782;2023-08-08T09:45:03;9.45;;;3.08;;
35681;SDS011;21805;51.022;4.782;2023-08-08T09:54:08;13.23;;;3.15;;
35681;SDS011;21805;51.022;4.782;2023-08-08T09:57:19;12.27;;;3.20;;
35681;SDS011;21805;51.022;4.782;2023-08-08T10:02:39;16.65;;;3.15;;
35681;SDS011;21805;51.022;4.782;2023-08-08T10:05:13;13.57;;;3.20;;
35681;SDS011;21805;51.022;4.782;2023-08-08T10:07:44;16.45;;;3.33;;
35681;SDS011;21805;51.022;4.782;2023-08-08T10:10:12;7.40;;;2.65;;
35681;SDS011;21805;51.022;4.782;2023-08-08T10:12:41;15.07;;;3.08;;
35681;SDS011;21805;51.022;4.782;2023-08-08T10:15:10;7.25;;;2.60;;
35681;SDS011;21805;51.022;4.782;2023-08-08T10:20:09;16.05;;;3.28;;
35681;SDS011;21805;51.022;4.782;2023-08-08T10:22:37;13.43;;;3.40;;
35681;SDS011;21805;51.022;4.782;2023-08-08T10:28:16;12.10;;;3.53;;
35681;SDS011;21805;51.022;4.782;2023-08-08T10:30:58;11.70;;;3.13;;
35681;SDS011;21805;51.022;4.782;2023-08-08T10:33:39;12.95;;;3.33;;
35681;SDS011;21805;51.022;4.782;2023-08-08T10:36:08;11.57;;;3.03;;
35681;SDS011;21805;51.022;4.782;2023-08-08T10:38:43;12.23;;;3.22;;
35681;SDS011;21805;51.022;4.782;2023-08-08T10:41:18;13.88;;;3.80;;
35681;SDS011;21805;51.022;4.782;2023-08-08T10:43:56;9.10;;;3.58;;
35681;SDS011;21805;51.022;4.782;2023-08-08T10:46:27;11.90;;;3.30;;
35681;SDS011;21805;51.022;4.782;2023-08-08T10:48:59;11.20;;;2.95;;
35681;SDS011;21805;51.022;4.782;2023-08-08T10:51:40;8.73;;;3.07;;
35681;SDS011;21805;51.022;4.782;2023-08-08T10:54:19;14.57;;;3.28;;
35681;SDS011;21805;51.022;4.782;2023-08-08T10:57:00;12.02;;;3.35;;
35681;SDS011;21805;51.022;4.782;2023-08-08T10:59:39;11.35;;;3.80;;
35681;SDS011;21805;51.022;4.782;2023-08-08T11:02:05;9.77;;;3.55;;
35681;SDS011;21805;51.022;4.782;2023-08-08T11:04:32;9.32;;;3.05;;
35681;SDS011;21805;51.022;4.782;2023-08-08T11:07:00;10.23;;;3.38;;
35681;SDS011;21805;51.022;4.782;2023-08-08T11:09:37;10.95;;;2.92;;
35681;SDS011;21805;51.022;4.782;2023-08-08T11:12:03;9.63;;;3.17;;
35681;SDS011;21805;51.022;4.782;2023-08-08T11:14:33;10.07;;;3.20;;
35681;SDS011;21805;51.022;4.782;2023-08-08T11:17:01;10.57;;;3.00;;
35681;SDS011;21805;51.022;4.782;2023-08-08T11:19:46;8.45;;;3.00;;
35681;SDS011;21805;51.022;4.782;2023-08-08T11:22:12;10.90;;;2.83;;
35681;SDS011;21805;51.022;4.782;2023-08-08T11:25:01;9.75;;;2.70;;
35681;SDS011;21805;51.022;4.782;2023-08-08T11:27:29;8.00;;;2.90;;
35681;SDS011;21805;51.022;4.782;2023-08-08T11:29:57;10.00;;;2.85;;
35681;SDS011;21805;51.022;4.782;2023-08-08T11:32:25;7.93;;;2.80;;
35681;SDS011;21805;51.022;4.782;2023-08-08T11:34:57;8.55;;;2.88;;
35681;SDS011;21805;51.022;4.782;2023-08-08T11:37:32;7.28;;;2.60;;
35681;SDS011;21805;51.022;4.782;2023-08-08T11:42:40;6.85;;;2.83;;
35681;SDS011;21805;51.022;4.782;2023-08-08T11:45:10;7.65;;;2.72;;
35681;SDS011;21805;51.022;4.782;2023-08-08T11:47:42;8.43;;;2.60;;
35681;SDS011;21805;51.022;4.782;2023-08-08T11:50:11;8.43;;;2.50;;
35681;SDS011;21805;51.022;4.782;2023-08-08T11:52:45;7.05;;;2.70;;
35681;SDS011;21805;51.022;4.782;2023-08-08T11:55:13;8.77;;;2.50;;
35681;SDS011;21805;51.022;4.782;2023-08-08T11:57:48;7.90;;;2.70;;
35681;SDS011;21805;51.022;4.782;2023-08-08T12:00:31;6.05;;;2.35;;
35681;SDS011;21805;51.022;4.782;2023-08-08T12:03:14;8.32;;;2.40;;
35681;SDS011;21805;51.022;4.782;2023-08-08T12:06:00;7.28;;;2.22;;
35681;SDS011;21805;51.022;4.782;2023-08-08T12:08:29;7.10;;;2.15;;
35681;SDS011;21805;51.022;4.782;2023-08-08T12:11:00;6.90;;;2.72;;
35681;SDS011;21805;51.022;4.782;2023-08-08T12:13:42;5.85;;;2.17;;
35681;SDS011;21805;51.022;4.782;2023-08-08T12:16:42;5.85;;;2.33;;
35681;SDS011;21805;51.022;4.782;2023-08-08T12:19:25;8.77;;;2.15;;
35681;SDS011;21805;51.022;4.782;2023-08-08T12:22:03;3.03;;;1.80;;
35681;SDS011;21805;51.022;4.782;2023-08-08T12:24:44;10.77;;;2.08;;
35681;SDS011;21805;51.022;4.782;2023-08-08T12:27:14;4.30;;;2.10;;
35681;SDS011;21805;51.022;4.782;2023-08-08T12:32:36;7.18;;;2.47;;
35681;SDS011;21805;51.022;4.782;2023-08-08T12:35:14;2.95;;;1.90;;
35681;SDS011;21805;51.022;4.782;2023-08-08T12:37:52;8.82;;;1.90;;
35681;SDS011;21805;51.022;4.782;2023-08-08T12:40:36;4.28;;;2.20;;
35681;SDS011;21805;51.022;4.782;2023-08-08T12:43:17;4.75;;;1.70;;
35681;SDS011;21805;51.022;4.782;2023-08-08T12:48:21;6.68;;;1.98;;
35681;SDS011;21805;51.022;4.782;2023-08-08T12:50:49;4.90;;;1.90;;
35681;SDS011;21805;51.022;4.782;2023-08-08T12:53:18;7.50;;;2.00;;
35681;SDS011;21805;51.022;4.782;2023-08-08T12:55:54;3.15;;;1.90;;
35681;SDS011;21805;51.022;4.782;2023-08-08T12:58:25;6.43;;;2.00;;
35681;SDS011;21805;51.022;4.782;2023-08-08T13:00:59;5.43;;;1.80;;
35681;SDS011;21805;51.022;4.782;2023-08-08T13:08:54;2.60;;;1.70;;
35681;SDS011;21805;51.022;4.782;2023-08-08T13:11:22;4.18;;;1.60;;
35681;SDS011;21805;51.022;4.782;2023-08-08T13:14:02;5.85;;;1.50;;
35681;SDS011;21805;51.022;4.782;2023-08-08T13:19:11;5.43;;;2.10;;
35681;SDS011;21805;51.022;4.782;2023-08-08T13:21:40;6.65;;;1.70;;
35681;SDS011;21805;51.022;4.782;2023-08-08T13:24:14;3.28;;;1.90;;
35681;SDS011;21805;51.022;4.782;2023-08-08T13:26:47;8.95;;;1.77;;
35681;SDS011;21805;51.022;4.782;2023-08-08T13:29:15;6.40;;;1.80;;
35681;SDS011;21805;51.022;4.782;2023-08-08T13:31:41;2.78;;;1.65;;
35681;SDS011;21805;51.022;4.782;2023-08-08T13:34:17;6.07;;;1.80;;
35681;SDS011;21805;51.022;4.782;2023-08-08T13:36:56;4.60;;;1.60;;
35681;SDS011;21805;51.022;4.782;2023-08-08T13:39:24;4.95;;;1.65;;
35681;SDS011;21805;51.022;4.782;2023-08-08T13:41:54;2.03;;;1.50;;
35681;SDS011;21805;51.022;4.782;2023-08-08T13:44:24;4.88;;;1.40;;
35681;SDS011;21805;51.022;4.782;2023-08-08T13:46:52;4.32;;;1.50;;
35681;SDS011;21805;51.022;4.782;2023-08-08T13:49:19;4.07;;;1.50;;
35681;SDS011;21805;51.022;4.782;2023-08-08T13:51:55;4.53;;;1.38;;
35681;SDS011;21805;51.022;4.782;2023-08-08T13:54:30;3.22;;;1.40;;
35681;SDS011;21805;51.022;4.782;2023-08-08T13:57:00;2.88;;;1.50;;
35681;SDS011;21805;51.022;4.782;2023-08-08T13:59:26;6.40;;;1.50;;
35681;SDS011;21805;51.022;4.782;2023-08-08T14:01:53;11.85;;;1.70;;
35681;SDS011;21805;51.022;4.782;2023-08-08T14:04:22;2.97;;;1.52;;
35681;SDS011;21805;51.022;4.782;2023-08-08T14:06:51;8.90;;;1.45;;
35681;SDS011;21805;51.022;4.782;2023-08-08T14:11:59;5.78;;;1.80;;
35681;SDS011;21805;51.022;4.782;2023-08-08T14:14:29;5.85;;;1.50;;
35681;SDS011;21805;51.022;4.782;2023-08-08T14:22:15;3.33;;;1.30;;
35681;SDS011;21805;51.022;4.782;2023-08-08T14:24:49;3.93;;;1.40;;
35681;SDS011;21805;51.022;4.782;2023-08-08T14:27:20;3.35;;;1.35;;
35681;SDS011;21805;51.022;4.782;2023-08-08T14:29:51;4.65;;;1.60;;
35681;SDS011;21805;51.022;4.782;2023-08-08T14:32:37;4.28;;;1.25;;
35681;SDS011;21805;51.022;4.782;2023-08-08T14:35:08;3.78;;;1.30;;
35681;SDS011;21805;51.022;4.782;2023-08-08T14:43:27;4.55;;;1.40;;
35681;SDS011;21805;51.022;4.782;2023-08-08T14:46:12;3.15;;;1.58;;
35681;SDS011;21805;51.022;4.782;2023-08-08T15:00:31;5.50;;;1.60;;
35681;SDS011;21805;51.022;4.782;2023-08-08T15:05:32;4.38;;;1.40;;
35681;SDS011;21805;51.022;4.782;2023-08-08T15:07:57;5.57;;;1.70;;
35681;SDS011;21805;51.022;4.782;2023-08-08T15:10:31;4.05;;;1.50;;
35681;SDS011;21805;51.022;4.782;2023-08-08T15:13:15;2.88;;;1.70;;
35681;SDS011;21805;51.022;4.782;2023-08-08T15:21:19;5.00;;;1.40;;
35681;SDS011;21805;51.022;4.782;2023-08-08T15:23:52;4.15;;;1.55;;
35681;SDS011;21805;51.022;4.782;2023-08-08T15:26:31;3.95;;;1.38;;
35681;SDS011;21805;51.022;4.782;2023-08-08T15:32:47;8.13;;;1.73;;
35681;SDS011;21805;51.022;4.782;2023-08-08T15:35:12;7.72;;;1.60;;
35681;SDS011;21805;51.022;4.782;2023-08-08T15:45:15;5.05;;;1.60;;
35681;SDS011;21805;51.022;4.782;2023-08-08T15:47:43;2.97;;;1.50;;
35681;SDS011;21805;51.022;4.782;2023-08-08T15:50:09;7.03;;;1.50;;
35681;SDS011;21805;51.022;4.782;2023-08-08T15:52:36;4.72;;;1.80;;
35681;SDS011;21805;51.022;4.782;2023-08-08T16:01:15;6.95;;;1.70;;
35681;SDS011;21805;51.022;4.782;2023-08-08T16:03:55;5.35;;;1.65;;
35681;SDS011;21805;51.022;4.782;2023-08-08T16:09:15;3.97;;;1.58;;
35681;SDS011;21805;51.022;4.782;2023-08-08T16:11:47;3.53;;;1.65;;
35681;SDS011;21805;51.022;4.782;2023-08-08T16:20:03;8.52;;;1.70;;
35681;SDS011;21805;51.022;4.782;2023-08-08T16:22:29;4.47;;;1.80;;
35681;SDS011;21805;51.022;4.782;2023-08-08T16:24:56;8.82;;;1.65;;
35681;SDS011;21805;51.022;4.782;2023-08-08T16:27:23;7.30;;;1.90;;
35681;SDS011;21805;51.022;4.782;2023-08-08T16:29:48;8.13;;;1.50;;
35681;SDS011;21805;51.022;4.782;2023-08-08T16:32:14;9.30;;;1.75;;
35681;SDS011;21805;51.022;4.782;2023-08-08T16:34:40;8.70;;;1.70;;
35681;SDS011;21805;51.022;4.782;2023-08-08T16:37:08;6.05;;;1.65;;
35681;SDS011;21805;51.022;4.782;2023-08-08T16:39:33;7.07;;;1.60;;
35681;SDS011;21805;51.022;4.782;2023-08-08T16:42:01;9.02;;;1.80;;
35681;SDS011;21805;51.022;4.782;2023-08-08T16:44:28;5.68;;;1.35;;
35681;SDS011;21805;51.022;4.782;2023-08-08T16:49:22;3.63;;;1.42;;
35681;SDS011;21805;51.022;4.782;2023-08-08T16:51:48;7.65;;;1.50;;
35681;SDS011;21805;51.022;4.782;2023-08-08T16:54:16;8.75;;;1.58;;
35681;SDS011;21805;51.022;4.782;2023-08-08T16:56:42;4.38;;;1.60;;
35681;SDS011;21805;51.022;4.782;2023-08-08T16:59:07;8.15;;;1.60;;
35681;SDS011;21805;51.022;4.782;2023-08-08T17:01:33;1.88;;;1.45;;
35681;SDS011;21805;51.022;4.782;2023-08-08T17:06:33;7.43;;;1.60;;
35681;SDS011;21805;51.022;4.782;2023-08-08T17:08:59;6.13;;;1.60;;
35681;SDS011;21805;51.022;4.782;2023-08-08T17:11:25;6.18;;;1.65;;
35681;SDS011;21805;51.022;4.782;2023-08-08T17:13:51;4.32;;;1.70;;
35681;SDS011;21805;51.022;4.782;2023-08-08T17:16:19;12.30;;;1.67;;
35681;SDS011;21805;51.022;4.782;2023-08-08T17:18:45;3.22;;;1.52;;
35681;SDS011;21805;51.022;4.782;2023-08-08T17:21:12;7.65;;;1.80;;
35681;SDS011;21805;51.022;4.782;2023-08-08T17:23:38;5.13;;;1.48;;
35681;SDS011;21805;51.022;4.782;2023-08-08T17:26:04;4.18;;;1.67;;
35681;SDS011;21805;51.022;4.782;2023-08-08T17:28:30;7.90;;;2.10;;
35681;SDS011;21805;51.022;4.782;2023-08-08T17:30:56;8.38;;;1.67;;
35681;SDS011;21805;51.022;4.782;2023-08-08T17:33:21;2.80;;;1.58;;
35681;SDS011;21805;51.022;4.782;2023-08-08T17:35:47;3.58;;;1.70;;
35681;SDS011;21805;51.022;4.782;2023-08-08T17:38:14;6.50;;;1.63;;
35681;SDS011;21805;51.022;4.782;2023-08-08T17:40:39;4.57;;;1.73;;
35681;SDS011;21805;51.022;4.782;2023-08-08T17:43:05;5.70;;;2.00;;
35681;SDS011;21805;51.022;4.782;2023-08-08T17:45:34;3.97;;;1.70;;
35681;SDS011;21805;51.022;4.782;2023-08-08T17:48:03;5.57;;;1.70;;
35681;SDS011;21805;51.022;4.782;2023-08-08T17:50:30;8.73;;;1.70;;
35681;SDS011;21805;51.022;4.782;2023-08-08T17:52:56;6.85;;;1.60;;
35681;SDS011;21805;51.022;4.782;2023-08-08T17:55:23;6.88;;;1.55;;
35681;SDS011;21805;51.022;4.782;2023-08-08T17:57:51;7.32;;;1.85;;
35681;SDS011;21805;51.022;4.782;2023-08-08T18:00:17;5.03;;;1.88;;
35681;SDS011;21805;51.022;4.782;2023-08-08T18:05:12;3.55;;;1.95;;
35681;SDS011;21805;51.022;4.782;2023-08-08T18:07:38;4.78;;;2.20;;
35681;SDS011;21805;51.022;4.782;2023-08-08T18:10:11;3.67;;;1.92;;
35681;SDS011;21805;51.022;4.782;2023-08-08T18:15:05;5.40;;;1.80;;
35681;SDS011;21805;51.022;4.782;2023-08-08T18:17:31;3.08;;;2.10;;
35681;SDS011;21805;51.022;4.782;2023-08-08T18:20:04;6.32;;;2.58;;
35681;SDS011;21805;51.022;4.782;2023-08-08T18:24:07;6.00;;;2.30;;
35681;SDS011;21805;51.022;4.782;2023-08-08T18:26:33;5.35;;;2.50;;
35681;SDS011;21805;51.022;4.782;2023-08-08T18:29:01;4.53;;;2.10;;
35681;SDS011;21805;51.022;4.782;2023-08-08T18:31:27;6.90;;;2.60;;
35681;SDS011;21805;51.022;4.782;2023-08-08T18:34:07;5.57;;;2.25;;
35681;SDS011;21805;51.022;4.782;2023-08-08T18:36:36;4.22;;;2.40;;
35681;SDS011;21805;51.022;4.782;2023-08-08T18:41:34;4.88;;;2.70;;
35681;SDS011;21805;51.022;4.782;2023-08-08T18:46:34;4.68;;;2.10;;
35681;SDS011;21805;51.022;4.782;2023-08-08T18:49:02;5.60;;;2.25;;
35681;SDS011;21805;51.022;4.782;2023-08-08T18:51:29;5.10;;;2.20;;